sensor_id;sensor_type;location;lat;lon;timestamp;P1;durP1;ratioP1;P2;durP2;ratioP2
65757;SDS011;52495;52.208;5.158;2024-03-29T00:01:04;6.45;;;1.73;;
65757;SDS011;52495;52.208;5.158;2024-03-29T00:03:32;5.15;;;1.17;;
65757;SDS011;52495;52.208;5.158;2024-03-29T00:05:57;7.15;;;1.30;;
65757;SDS011;52495;52.208;5.158;2024-03-29T00:08:23;4.03;;;1.10;;
65757;SDS011;52495;52.208;5.158;2024-03-29T00:10:49;4.57;;;1.45;;
65757;SDS011;52495;52.208;5.158;2024-03-29T00:13:14;5.38;;;1.40;;
65757;SDS011;52495;52.208;5.158;2024-03-29T00:15:40;7.40;;;1.45;;
65757;SDS011;52495;52.208;5.158;2024-03-29T00:18:06;6.75;;;1.52;;
65757;SDS011;52495;52.208;5.158;2024-03-29T00:20:33;4.50;;;1.05;;
65757;SDS011;52495;52.208;5.158;2024-03-29T00:22:59;1.98;;;0.80;;
65757;SDS011;52495;52.208;5.158;2024-03-29T00:25:25;7.82;;;1.58;;
65757;SDS011;52495;52.208;5.158;2024-03-29T00:27:51;5.53;;;1.48;;
65757;SDS011;52495;52.208;5.158;2024-03-29T00:30:16;6.95;;;1.38;;
65757;SDS011;52495;52.208;5.158;2024-03-29T00:32:42;5.82;;;1.40;;
65757;SDS011;52495;52.208;5.158;2024-03-29T00:35:08;4.60;;;1.20;;
65757;SDS011;52495;52.208;5.158;2024-03-29T00:37:35;6.30;;;1.50;;
65757;SDS011;52495;52.208;5.158;2024-03-29T00:40:01;6.38;;;1.48;;
65757;SDS011;52495;52.208;5.158;2024-03-29T00:42:27;7.00;;;1.85;;
65757;SDS011;52495;52.208;5.158;2024-03-29T00:44:52;4.15;;;1.30;;
65757;SDS011;52495;52.208;5.158;2024-03-29T00:47:18;2.53;;;1.13;;
65757;SDS011;52495;52.208;5.158;2024-03-29T00:49:44;4.93;;;1.70;;
65757;SDS011;52495;52.208;5.158;2024-03-29T00:52:10;6.07;;;1.27;;
65757;SDS011;52495;52.208;5.158;2024-03-29T00:54:37;5.22;;;1.20;;
65757;SDS011;52495;52.208;5.158;2024-03-29T00:57:03;6.40;;;1.63;;
65757;SDS011;52495;52.208;5.158;2024-03-29T00:59:28;5.65;;;1.63;;
65757;SDS011;52495;52.208;5.158;2024-03-29T01:01:54;5.60;;;1.10;;
65757;SDS011;52495;52.208;5.158;2024-03-29T01:04:20;4.50;;;1.20;;
65757;SDS011;52495;52.208;5.158;2024-03-29T01:06:46;3.38;;;1.30;;
65757;SDS011;52495;52.208;5.158;2024-03-29T01:09:11;5.05;;;1.55;;
65757;SDS011;52495;52.208;5.158;2024-03-29T01:11:39;5.82;;;1.35;;
65757;SDS011;52495;52.208;5.158;2024-03-29T01:14:04;3.17;;;1.40;;
65757;SDS011;52495;52.208;5.158;2024-03-29T01:16:31;4.53;;;1.25;;
65757;SDS011;52495;52.208;5.158;2024-03-29T01:18:57;4.97;;;1.23;;
65757;SDS011;52495;52.208;5.158;2024-03-29T01:21:22;4.38;;;1.25;;
65757;SDS011;52495;52.208;5.158;2024-03-29T01:23:48;5.30;;;1.30;;
65757;SDS011;52495;52.208;5.158;2024-03-29T01:26:14;4.82;;;1.30;;
65757;SDS011;52495;52.208;5.158;2024-03-29T01:28:41;4.95;;;1.10;;
65757;SDS011;52495;52.208;5.158;2024-03-29T01:31:07;7.10;;;1.42;;
65757;SDS011;52495;52.208;5.158;2024-03-29T01:33:33;4.38;;;1.48;;
65757;SDS011;52495;52.208;5.158;2024-03-29T01:35:58;6.53;;;1.77;;
65757;SDS011;52495;52.208;5.158;2024-03-29T01:38:24;5.90;;;1.48;;
65757;SDS011;52495;52.208;5.158;2024-03-29T01:40:50;4.63;;;1.10;;
65757;SDS011;52495;52.208;5.158;2024-03-29T01:43:16;4.55;;;1.10;;
65757;SDS011;52495;52.208;5.158;2024-03-29T01:45:44;3.17;;;1.17;;
65757;SDS011;52495;52.208;5.158;2024-03-29T01:48:14;5.68;;;1.30;;
65757;SDS011;52495;52.208;5.158;2024-03-29T01:50:41;5.35;;;1.00;;
65757;SDS011;52495;52.208;5.158;2024-03-29T01:53:08;4.38;;;1.27;;
65757;SDS011;52495;52.208;5.158;2024-03-29T01:55:35;5.93;;;1.42;;
65757;SDS011;52495;52.208;5.158;2024-03-29T01:58:02;4.95;;;1.35;;
65757;SDS011;52495;52.208;5.158;2024-03-29T02:00:29;3.15;;;1.08;;
65757;SDS011;52495;52.208;5.158;2024-03-29T02:03:02;2.25;;;0.93;;
65757;SDS011;52495;52.208;5.158;2024-03-29T02:05:29;3.53;;;1.08;;
65757;SDS011;52495;52.208;5.158;2024-03-29T02:07:56;4.95;;;1.90;;
65757;SDS011;52495;52.208;5.158;2024-03-29T02:10:23;2.88;;;1.02;;
65757;SDS011;52495;52.208;5.158;2024-03-29T02:12:50;5.22;;;1.15;;
65757;SDS011;52495;52.208;5.158;2024-03-29T02:15:17;4.75;;;1.38;;
65757;SDS011;52495;52.208;5.158;2024-03-29T02:17:44;4.05;;;1.20;;
65757;SDS011;52495;52.208;5.158;2024-03-29T02:20:12;6.35;;;1.88;;
65757;SDS011;52495;52.208;5.158;2024-03-29T02:22:39;3.50;;;1.25;;
65757;SDS011;52495;52.208;5.158;2024-03-29T02:25:14;4.55;;;1.42;;
65757;SDS011;52495;52.208;5.158;2024-03-29T02:27:41;7.38;;;1.67;;
65757;SDS011;52495;52.208;5.158;2024-03-29T02:30:08;4.88;;;1.50;;
65757;SDS011;52495;52.208;5.158;2024-03-29T02:32:39;3.35;;;1.05;;
65757;SDS011;52495;52.208;5.158;2024-03-29T02:35:06;5.28;;;1.30;;
65757;SDS011;52495;52.208;5.158;2024-03-29T02:37:34;4.15;;;1.00;;
65757;SDS011;52495;52.208;5.158;2024-03-29T02:40:01;3.13;;;1.00;;
65757;SDS011;52495;52.208;5.158;2024-03-29T02:42:30;3.38;;;1.08;;
65757;SDS011;52495;52.208;5.158;2024-03-29T02:44:57;3.22;;;1.30;;
65757;SDS011;52495;52.208;5.158;2024-03-29T02:47:24;5.07;;;1.17;;
65757;SDS011;52495;52.208;5.158;2024-03-29T02:49:49;5.25;;;1.25;;
65757;SDS011;52495;52.208;5.158;2024-03-29T02:52:16;5.20;;;1.27;;
65757;SDS011;52495;52.208;5.158;2024-03-29T02:54:42;4.10;;;1.08;;
65757;SDS011;52495;52.208;5.158;2024-03-29T02:57:08;5.60;;;1.20;;
65757;SDS011;52495;52.208;5.158;2024-03-29T02:59:35;2.25;;;0.95;;
65757;SDS011;52495;52.208;5.158;2024-03-29T03:02:02;3.95;;;1.48;;
65757;SDS011;52495;52.208;5.158;2024-03-29T03:04:28;5.35;;;1.13;;
65757;SDS011;52495;52.208;5.158;2024-03-29T03:06:54;5.22;;;1.27;;
65757;SDS011;52495;52.208;5.158;2024-03-29T03:09:21;4.15;;;1.13;;
65757;SDS011;52495;52.208;5.158;2024-03-29T03:12:05;7.32;;;1.25;;
65757;SDS011;52495;52.208;5.158;2024-03-29T03:14:32;5.20;;;1.23;;
65757;SDS011;52495;52.208;5.158;2024-03-29T03:17:00;5.53;;;1.02;;
65757;SDS011;52495;52.208;5.158;2024-03-29T03:19:27;2.25;;;0.98;;
65757;SDS011;52495;52.208;5.158;2024-03-29T03:21:53;1.58;;;0.73;;
65757;SDS011;52495;52.208;5.158;2024-03-29T03:24:19;7.63;;;1.30;;
65757;SDS011;52495;52.208;5.158;2024-03-29T03:26:45;3.95;;;1.08;;
65757;SDS011;52495;52.208;5.158;2024-03-29T03:29:12;2.35;;;0.93;;
65757;SDS011;52495;52.208;5.158;2024-03-29T03:31:38;2.28;;;0.80;;
65757;SDS011;52495;52.208;5.158;2024-03-29T03:34:05;2.55;;;0.80;;
65757;SDS011;52495;52.208;5.158;2024-03-29T03:36:32;6.43;;;0.93;;
65757;SDS011;52495;52.208;5.158;2024-03-29T03:38:58;7.85;;;1.60;;
65757;SDS011;52495;52.208;5.158;2024-03-29T03:41:25;6.13;;;1.75;;
65757;SDS011;52495;52.208;5.158;2024-03-29T03:43:50;3.40;;;0.88;;
65757;SDS011;52495;52.208;5.158;2024-03-29T03:46:17;3.03;;;1.05;;
65757;SDS011;52495;52.208;5.158;2024-03-29T03:48:42;3.92;;;0.80;;
65757;SDS011;52495;52.208;5.158;2024-03-29T03:51:10;5.55;;;1.00;;
65757;SDS011;52495;52.208;5.158;2024-03-29T03:53:36;2.78;;;0.90;;
65757;SDS011;52495;52.208;5.158;2024-03-29T03:56:04;4.13;;;1.30;;
65757;SDS011;52495;52.208;5.158;2024-03-29T03:58:30;3.38;;;1.05;;
65757;SDS011;52495;52.208;5.158;2024-03-29T04:00:57;2.03;;;0.90;;
65757;SDS011;52495;52.208;5.158;2024-03-29T04:03:29;2.42;;;0.95;;
65757;SDS011;52495;52.208;5.158;2024-03-29T04:05:56;1.90;;;1.08;;
65757;SDS011;52495;52.208;5.158;2024-03-29T04:08:23;9.38;;;1.40;;
65757;SDS011;52495;52.208;5.158;2024-03-29T04:10:50;3.03;;;0.90;;
65757;SDS011;52495;52.208;5.158;2024-03-29T04:13:15;5.03;;;0.88;;
65757;SDS011;52495;52.208;5.158;2024-03-29T04:15:42;5.63;;;0.90;;
65757;SDS011;52495;52.208;5.158;2024-03-29T04:18:07;3.25;;;1.08;;
65757;SDS011;52495;52.208;5.158;2024-03-29T04:20:34;2.13;;;0.80;;
65757;SDS011;52495;52.208;5.158;2024-03-29T04:23:03;2.88;;;1.08;;
65757;SDS011;52495;52.208;5.158;2024-03-29T04:25:31;3.03;;;0.98;;
65757;SDS011;52495;52.208;5.158;2024-03-29T04:27:57;1.98;;;0.80;;
65757;SDS011;52495;52.208;5.158;2024-03-29T04:30:24;3.75;;;1.25;;
65757;SDS011;52495;52.208;5.158;2024-03-29T04:32:50;3.45;;;1.08;;
65757;SDS011;52495;52.208;5.158;2024-03-29T04:35:17;3.97;;;1.10;;
65757;SDS011;52495;52.208;5.158;2024-03-29T04:37:42;2.70;;;0.90;;
65757;SDS011;52495;52.208;5.158;2024-03-29T04:40:10;4.97;;;1.38;;
65757;SDS011;52495;52.208;5.158;2024-03-29T04:42:38;4.85;;;0.95;;
65757;SDS011;52495;52.208;5.158;2024-03-29T04:45:05;3.88;;;0.80;;
65757;SDS011;52495;52.208;5.158;2024-03-29T04:47:32;5.43;;;0.98;;
65757;SDS011;52495;52.208;5.158;2024-03-29T04:49:59;3.95;;;0.80;;
65757;SDS011;52495;52.208;5.158;2024-03-29T04:52:25;2.55;;;1.00;;
65757;SDS011;52495;52.208;5.158;2024-03-29T04:54:52;3.15;;;0.80;;
65757;SDS011;52495;52.208;5.158;2024-03-29T04:57:19;2.30;;;0.85;;
65757;SDS011;52495;52.208;5.158;2024-03-29T04:59:49;2.33;;;1.10;;
65757;SDS011;52495;52.208;5.158;2024-03-29T05:02:16;3.03;;;1.00;;
65757;SDS011;52495;52.208;5.158;2024-03-29T05:04:42;1.95;;;0.60;;
65757;SDS011;52495;52.208;5.158;2024-03-29T05:07:09;2.22;;;0.63;;
65757;SDS011;52495;52.208;5.158;2024-03-29T05:09:36;6.63;;;1.98;;
65757;SDS011;52495;52.208;5.158;2024-03-29T05:12:01;4.45;;;0.88;;
65757;SDS011;52495;52.208;5.158;2024-03-29T05:14:28;0.60;;;0.45;;
65757;SDS011;52495;52.208;5.158;2024-03-29T05:16:56;1.55;;;0.55;;
65757;SDS011;52495;52.208;5.158;2024-03-29T05:19:23;2.75;;;0.90;;
65757;SDS011;52495;52.208;5.158;2024-03-29T05:21:49;0.70;;;0.50;;
65757;SDS011;52495;52.208;5.158;2024-03-29T05:24:16;0.80;;;0.43;;
65757;SDS011;52495;52.208;5.158;2024-03-29T05:26:42;1.52;;;0.55;;
65757;SDS011;52495;52.208;5.158;2024-03-29T05:29:09;2.10;;;0.60;;
65757;SDS011;52495;52.208;5.158;2024-03-29T05:31:36;0.60;;;0.40;;
65757;SDS011;52495;52.208;5.158;2024-03-29T05:34:04;1.60;;;0.77;;
65757;SDS011;52495;52.208;5.158;2024-03-29T05:36:30;0.95;;;0.43;;
65757;SDS011;52495;52.208;5.158;2024-03-29T05:38:57;1.30;;;0.75;;
65757;SDS011;52495;52.208;5.158;2024-03-29T05:41:24;1.70;;;0.68;;
65757;SDS011;52495;52.208;5.158;2024-03-29T05:43:51;2.53;;;0.93;;
65757;SDS011;52495;52.208;5.158;2024-03-29T05:46:17;2.05;;;0.73;;
65757;SDS011;52495;52.208;5.158;2024-03-29T05:48:44;3.28;;;1.00;;
65757;SDS011;52495;52.208;5.158;2024-03-29T05:51:12;1.65;;;0.60;;
65757;SDS011;52495;52.208;5.158;2024-03-29T05:53:39;1.85;;;0.47;;
65757;SDS011;52495;52.208;5.158;2024-03-29T05:56:06;2.60;;;1.10;;
65757;SDS011;52495;52.208;5.158;2024-03-29T05:58:33;2.60;;;0.90;;
65757;SDS011;52495;52.208;5.158;2024-03-29T06:01:00;1.88;;;0.77;;
65757;SDS011;52495;52.208;5.158;2024-03-29T06:03:26;1.63;;;0.60;;
65757;SDS011;52495;52.208;5.158;2024-03-29T06:05:53;2.45;;;0.77;;
65757;SDS011;52495;52.208;5.158;2024-03-29T06:08:20;2.47;;;0.88;;
65757;SDS011;52495;52.208;5.158;2024-03-29T06:10:49;1.70;;;0.63;;
65757;SDS011;52495;52.208;5.158;2024-03-29T06:13:17;2.97;;;0.80;;
65757;SDS011;52495;52.208;5.158;2024-03-29T06:15:54;1.85;;;0.68;;
65757;SDS011;52495;52.208;5.158;2024-03-29T06:18:39;1.80;;;1.00;;
65757;SDS011;52495;52.208;5.158;2024-03-29T06:21:06;5.13;;;1.10;;
65757;SDS011;52495;52.208;5.158;2024-03-29T06:23:34;2.58;;;0.85;;
65757;SDS011;52495;52.208;5.158;2024-03-29T06:26:00;2.10;;;1.00;;
65757;SDS011;52495;52.208;5.158;2024-03-29T06:28:27;2.70;;;0.85;;
65757;SDS011;52495;52.208;5.158;2024-03-29T06:30:54;3.95;;;0.90;;
65757;SDS011;52495;52.208;5.158;2024-03-29T06:33:21;2.67;;;1.10;;
65757;SDS011;52495;52.208;5.158;2024-03-29T06:35:52;2.45;;;0.77;;
65757;SDS011;52495;52.208;5.158;2024-03-29T06:38:19;2.08;;;0.85;;
65757;SDS011;52495;52.208;5.158;2024-03-29T06:40:47;3.13;;;0.70;;
65757;SDS011;52495;52.208;5.158;2024-03-29T06:43:14;2.33;;;0.90;;
65757;SDS011;52495;52.208;5.158;2024-03-29T06:45:41;2.95;;;1.27;;
65757;SDS011;52495;52.208;5.158;2024-03-29T06:48:09;2.28;;;0.80;;
65757;SDS011;52495;52.208;5.158;2024-03-29T06:50:37;2.70;;;0.85;;
65757;SDS011;52495;52.208;5.158;2024-03-29T06:53:03;2.60;;;1.20;;
65757;SDS011;52495;52.208;5.158;2024-03-29T06:55:31;2.25;;;0.80;;
65757;SDS011;52495;52.208;5.158;2024-03-29T06:57:59;2.75;;;1.00;;
65757;SDS011;52495;52.208;5.158;2024-03-29T07:00:25;1.52;;;0.75;;
65757;SDS011;52495;52.208;5.158;2024-03-29T07:02:52;1.80;;;0.77;;
65757;SDS011;52495;52.208;5.158;2024-03-29T07:05:19;3.75;;;1.00;;
65757;SDS011;52495;52.208;5.158;2024-03-29T07:07:45;2.33;;;0.90;;
65757;SDS011;52495;52.208;5.158;2024-03-29T07:10:12;1.85;;;0.63;;
65757;SDS011;52495;52.208;5.158;2024-03-29T07:12:39;2.30;;;0.77;;
65757;SDS011;52495;52.208;5.158;2024-03-29T07:15:07;2.60;;;0.93;;
65757;SDS011;52495;52.208;5.158;2024-03-29T07:17:34;0.82;;;0.60;;
65757;SDS011;52495;52.208;5.158;2024-03-29T07:20:01;1.52;;;0.70;;
65757;SDS011;52495;52.208;5.158;2024-03-29T07:22:28;2.97;;;0.70;;
65757;SDS011;52495;52.208;5.158;2024-03-29T07:24:54;1.90;;;0.80;;
65757;SDS011;52495;52.208;5.158;2024-03-29T07:27:21;1.55;;;0.75;;
65757;SDS011;52495;52.208;5.158;2024-03-29T07:29:48;2.08;;;0.73;;
65757;SDS011;52495;52.208;5.158;2024-03-29T07:32:16;3.47;;;0.90;;
65757;SDS011;52495;52.208;5.158;2024-03-29T07:34:42;1.80;;;0.63;;
65757;SDS011;52495;52.208;5.158;2024-03-29T07:37:09;1.80;;;0.50;;
65757;SDS011;52495;52.208;5.158;2024-03-29T07:39:40;0.82;;;0.80;;
65757;SDS011;52495;52.208;5.158;2024-03-29T07:42:07;2.13;;;0.80;;
65757;SDS011;52495;52.208;5.158;2024-03-29T07:44:34;1.10;;;0.75;;
65757;SDS011;52495;52.208;5.158;2024-03-29T07:47:01;4.15;;;0.70;;
65757;SDS011;52495;52.208;5.158;2024-03-29T07:49:29;4.00;;;1.30;;
65757;SDS011;52495;52.208;5.158;2024-03-29T07:51:55;1.98;;;0.82;;
65757;SDS011;52495;52.208;5.158;2024-03-29T07:54:22;1.63;;;0.70;;
65757;SDS011;52495;52.208;5.158;2024-03-29T07:56:49;2.88;;;0.80;;
65757;SDS011;52495;52.208;5.158;2024-03-29T07:59:15;1.73;;;0.80;;
65757;SDS011;52495;52.208;5.158;2024-03-29T08:01:44;3.67;;;1.02;;
65757;SDS011;52495;52.208;5.158;2024-03-29T08:04:11;1.60;;;0.60;;
65757;SDS011;52495;52.208;5.158;2024-03-29T08:06:39;3.38;;;0.70;;
65757;SDS011;52495;52.208;5.158;2024-03-29T08:09:06;2.08;;;0.60;;
65757;SDS011;52495;52.208;5.158;2024-03-29T08:11:32;1.83;;;0.50;;
65757;SDS011;52495;52.208;5.158;2024-03-29T08:13:59;1.13;;;0.50;;
65757;SDS011;52495;52.208;5.158;2024-03-29T08:16:26;0.85;;;0.57;;
65757;SDS011;52495;52.208;5.158;2024-03-29T08:18:53;0.50;;;0.50;;
65757;SDS011;52495;52.208;5.158;2024-03-29T08:21:19;0.82;;;0.50;;
65757;SDS011;52495;52.208;5.158;2024-03-29T08:23:47;1.23;;;0.52;;
65757;SDS011;52495;52.208;5.158;2024-03-29T08:26:16;1.52;;;0.70;;
65757;SDS011;52495;52.208;5.158;2024-03-29T08:28:44;0.73;;;0.57;;
65757;SDS011;52495;52.208;5.158;2024-03-29T08:31:11;1.55;;;0.70;;
65757;SDS011;52495;52.208;5.158;2024-03-29T08:33:37;2.05;;;0.50;;
65757;SDS011;52495;52.208;5.158;2024-03-29T08:36:04;1.35;;;0.50;;
65757;SDS011;52495;52.208;5.158;2024-03-29T08:38:33;1.75;;;0.55;;
65757;SDS011;52495;52.208;5.158;2024-03-29T08:41:01;1.02;;;0.50;;
65757;SDS011;52495;52.208;5.158;2024-03-29T08:43:28;2.03;;;0.80;;
65757;SDS011;52495;52.208;5.158;2024-03-29T08:45:54;1.27;;;0.50;;
65757;SDS011;52495;52.208;5.158;2024-03-29T08:48:21;1.10;;;0.50;;
65757;SDS011;52495;52.208;5.158;2024-03-29T08:50:49;1.23;;;0.70;;
65757;SDS011;52495;52.208;5.158;2024-03-29T08:53:16;1.55;;;0.68;;
65757;SDS011;52495;52.208;5.158;2024-03-29T08:55:42;0.65;;;0.50;;
65757;SDS011;52495;52.208;5.158;2024-03-29T08:58:10;0.73;;;0.57;;
65757;SDS011;52495;52.208;5.158;2024-03-29T09:00:37;0.73;;;0.60;;
65757;SDS011;52495;52.208;5.158;2024-03-29T09:03:04;1.88;;;0.60;;
65757;SDS011;52495;52.208;5.158;2024-03-29T09:05:31;0.70;;;0.60;;
65757;SDS011;52495;52.208;5.158;2024-03-29T09:07:57;1.15;;;0.73;;
65757;SDS011;52495;52.208;5.158;2024-03-29T09:10:24;1.15;;;0.68;;
65757;SDS011;52495;52.208;5.158;2024-03-29T09:12:52;1.63;;;0.82;;
65757;SDS011;52495;52.208;5.158;2024-03-29T09:15:20;1.52;;;0.70;;
65757;SDS011;52495;52.208;5.158;2024-03-29T09:17:46;2.15;;;0.80;;
65757;SDS011;52495;52.208;5.158;2024-03-29T09:20:13;2.08;;;0.52;;
65757;SDS011;52495;52.208;5.158;2024-03-29T09:22:40;2.22;;;0.73;;
65757;SDS011;52495;52.208;5.158;2024-03-29T09:25:07;1.95;;;0.88;;
65757;SDS011;52495;52.208;5.158;2024-03-29T09:27:38;0.90;;;0.70;;
65757;SDS011;52495;52.208;5.158;2024-03-29T09:30:08;1.13;;;0.60;;
65757;SDS011;52495;52.208;5.158;2024-03-29T09:32:37;3.10;;;0.80;;
65757;SDS011;52495;52.208;5.158;2024-03-29T09:35:04;2.00;;;0.73;;
65757;SDS011;52495;52.208;5.158;2024-03-29T09:37:31;0.68;;;0.60;;
65757;SDS011;52495;52.208;5.158;2024-03-29T09:40:01;2.22;;;0.80;;
65757;SDS011;52495;52.208;5.158;2024-03-29T09:42:29;2.30;;;0.75;;
65757;SDS011;52495;52.208;5.158;2024-03-29T09:44:58;1.20;;;0.70;;
65757;SDS011;52495;52.208;5.158;2024-03-29T09:47:25;1.55;;;0.75;;
65757;SDS011;52495;52.208;5.158;2024-03-29T09:49:54;0.98;;;0.60;;
65757;SDS011;52495;52.208;5.158;2024-03-29T09:52:23;2.00;;;0.73;;
65757;SDS011;52495;52.208;5.158;2024-03-29T09:54:51;1.25;;;0.60;;
65757;SDS011;52495;52.208;5.158;2024-03-29T09:57:18;1.05;;;0.50;;
65757;SDS011;52495;52.208;5.158;2024-03-29T09:59:45;1.52;;;0.68;;
65757;SDS011;52495;52.208;5.158;2024-03-29T10:02:14;1.85;;;0.70;;
65757;SDS011;52495;52.208;5.158;2024-03-29T10:04:42;1.33;;;0.98;;
65757;SDS011;52495;52.208;5.158;2024-03-29T10:07:10;3.25;;;1.33;;
65757;SDS011;52495;52.208;5.158;2024-03-29T10:09:40;3.17;;;1.00;;
65757;SDS011;52495;52.208;5.158;2024-03-29T10:12:08;2.67;;;0.90;;
65757;SDS011;52495;52.208;5.158;2024-03-29T10:14:43;4.40;;;1.70;;
65757;SDS011;52495;52.208;5.158;2024-03-29T10:17:14;4.28;;;1.35;;
65757;SDS011;52495;52.208;5.158;2024-03-29T10:19:42;1.85;;;1.02;;
65757;SDS011;52495;52.208;5.158;2024-03-29T10:22:09;3.33;;;1.70;;
65757;SDS011;52495;52.208;5.158;2024-03-29T10:24:37;3.65;;;1.00;;
65757;SDS011;52495;52.208;5.158;2024-03-29T10:27:05;1.70;;;0.90;;
65757;SDS011;52495;52.208;5.158;2024-03-29T10:29:32;2.63;;;1.20;;
65757;SDS011;52495;52.208;5.158;2024-03-29T10:31:59;3.88;;;1.10;;
65757;SDS011;52495;52.208;5.158;2024-03-29T10:34:26;4.30;;;1.40;;
65757;SDS011;52495;52.208;5.158;2024-03-29T10:36:58;3.00;;;0.90;;
65757;SDS011;52495;52.208;5.158;2024-03-29T10:39:28;1.85;;;0.90;;
65757;SDS011;52495;52.208;5.158;2024-03-29T10:41:55;3.53;;;1.00;;
65757;SDS011;52495;52.208;5.158;2024-03-29T10:44:23;1.88;;;0.98;;
65757;SDS011;52495;52.208;5.158;2024-03-29T10:46:50;1.33;;;0.90;;
65757;SDS011;52495;52.208;5.158;2024-03-29T10:49:18;2.90;;;1.13;;
65757;SDS011;52495;52.208;5.158;2024-03-29T10:51:46;1.58;;;0.90;;
65757;SDS011;52495;52.208;5.158;2024-03-29T10:54:13;2.63;;;1.20;;
65757;SDS011;52495;52.208;5.158;2024-03-29T10:56:41;2.28;;;1.17;;
65757;SDS011;52495;52.208;5.158;2024-03-29T10:59:11;2.47;;;1.45;;
65757;SDS011;52495;52.208;5.158;2024-03-29T11:01:44;4.10;;;1.77;;
65757;SDS011;52495;52.208;5.158;2024-03-29T11:04:17;2.83;;;1.60;;
65757;SDS011;52495;52.208;5.158;2024-03-29T11:06:48;2.55;;;1.48;;
65757;SDS011;52495;52.208;5.158;2024-03-29T11:09:18;2.95;;;1.38;;
65757;SDS011;52495;52.208;5.158;2024-03-29T11:11:50;2.17;;;1.38;;
65757;SDS011;52495;52.208;5.158;2024-03-29T11:14:19;2.45;;;1.38;;
65757;SDS011;52495;52.208;5.158;2024-03-29T11:16:50;2.40;;;1.30;;
65757;SDS011;52495;52.208;5.158;2024-03-29T11:19:22;2.72;;;1.35;;
65757;SDS011;52495;52.208;5.158;2024-03-29T11:21:49;3.80;;;1.50;;
65757;SDS011;52495;52.208;5.158;2024-03-29T11:24:17;2.72;;;1.13;;
65757;SDS011;52495;52.208;5.158;2024-03-29T11:26:45;1.75;;;1.23;;
65757;SDS011;52495;52.208;5.158;2024-03-29T11:29:19;3.55;;;1.30;;
65757;SDS011;52495;52.208;5.158;2024-03-29T11:31:46;2.67;;;1.10;;
65757;SDS011;52495;52.208;5.158;2024-03-29T11:34:18;2.63;;;1.20;;
65757;SDS011;52495;52.208;5.158;2024-03-29T11:36:45;2.00;;;1.10;;
65757;SDS011;52495;52.208;5.158;2024-03-29T11:39:19;2.72;;;1.30;;
65757;SDS011;52495;52.208;5.158;2024-03-29T11:41:47;2.47;;;1.20;;
65757;SDS011;52495;52.208;5.158;2024-03-29T11:44:14;4.40;;;1.27;;
65757;SDS011;52495;52.208;5.158;2024-03-29T11:46:43;1.95;;;0.80;;
65757;SDS011;52495;52.208;5.158;2024-03-29T11:49:10;2.08;;;1.10;;
65757;SDS011;52495;52.208;5.158;2024-03-29T11:51:37;4.10;;;1.20;;
65757;SDS011;52495;52.208;5.158;2024-03-29T11:54:04;1.48;;;1.20;;
65757;SDS011;52495;52.208;5.158;2024-03-29T11:56:31;2.75;;;1.00;;
65757;SDS011;52495;52.208;5.158;2024-03-29T11:58:57;2.58;;;1.25;;
65757;SDS011;52495;52.208;5.158;2024-03-29T12:01:25;3.17;;;1.30;;
65757;SDS011;52495;52.208;5.158;2024-03-29T12:03:55;2.05;;;1.40;;
65757;SDS011;52495;52.208;5.158;2024-03-29T12:06:22;2.97;;;1.80;;
65757;SDS011;52495;52.208;5.158;2024-03-29T12:08:49;2.80;;;1.60;;
65757;SDS011;52495;52.208;5.158;2024-03-29T12:11:18;2.20;;;1.50;;
65757;SDS011;52495;52.208;5.158;2024-03-29T12:13:45;3.13;;;1.90;;
65757;SDS011;52495;52.208;5.158;2024-03-29T12:16:11;3.08;;;1.70;;
65757;SDS011;52495;52.208;5.158;2024-03-29T12:18:38;3.47;;;2.42;;
65757;SDS011;52495;52.208;5.158;2024-03-29T12:21:07;4.50;;;2.10;;
65757;SDS011;52495;52.208;5.158;2024-03-29T12:23:35;3.25;;;2.25;;
65757;SDS011;52495;52.208;5.158;2024-03-29T12:26:01;3.58;;;2.17;;
65757;SDS011;52495;52.208;5.158;2024-03-29T12:28:28;4.95;;;2.67;;
65757;SDS011;52495;52.208;5.158;2024-03-29T12:30:59;2.35;;;2.13;;
65757;SDS011;52495;52.208;5.158;2024-03-29T12:33:26;3.80;;;2.60;;
65757;SDS011;52495;52.208;5.158;2024-03-29T12:35:54;4.45;;;2.70;;
65757;SDS011;52495;52.208;5.158;2024-03-29T12:38:23;4.10;;;2.10;;
65757;SDS011;52495;52.208;5.158;2024-03-29T12:40:50;2.92;;;2.08;;
65757;SDS011;52495;52.208;5.158;2024-03-29T12:43:21;3.30;;;2.15;;
65757;SDS011;52495;52.208;5.158;2024-03-29T12:45:49;3.58;;;2.13;;
65757;SDS011;52495;52.208;5.158;2024-03-29T12:48:17;3.00;;;2.35;;
65757;SDS011;52495;52.208;5.158;2024-03-29T12:50:46;3.38;;;2.33;;
65757;SDS011;52495;52.208;5.158;2024-03-29T12:53:14;3.08;;;2.20;;
65757;SDS011;52495;52.208;5.158;2024-03-29T12:55:43;3.13;;;2.25;;
65757;SDS011;52495;52.208;5.158;2024-03-29T12:58:11;3.00;;;2.03;;
65757;SDS011;52495;52.208;5.158;2024-03-29T13:00:39;2.97;;;2.17;;
65757;SDS011;52495;52.208;5.158;2024-03-29T13:03:06;3.70;;;1.83;;
65757;SDS011;52495;52.208;5.158;2024-03-29T13:05:34;3.97;;;2.00;;
65757;SDS011;52495;52.208;5.158;2024-03-29T13:08:05;2.85;;;1.73;;
65757;SDS011;52495;52.208;5.158;2024-03-29T13:10:34;1.85;;;1.35;;
65757;SDS011;52495;52.208;5.158;2024-03-29T13:13:03;2.00;;;1.55;;
65757;SDS011;52495;52.208;5.158;2024-03-29T13:15:32;5.03;;;1.85;;
65757;SDS011;52495;52.208;5.158;2024-03-29T13:17:59;1.95;;;1.70;;
65757;SDS011;52495;52.208;5.158;2024-03-29T13:20:26;1.92;;;1.40;;
65757;SDS011;52495;52.208;5.158;2024-03-29T13:22:53;2.80;;;1.70;;
65757;SDS011;52495;52.208;5.158;2024-03-29T13:25:21;2.30;;;1.70;;
65757;SDS011;52495;52.208;5.158;2024-03-29T13:27:49;2.92;;;1.85;;
65757;SDS011;52495;52.208;5.158;2024-03-29T13:30:20;3.28;;;2.00;;
65757;SDS011;52495;52.208;5.158;2024-03-29T13:32:47;3.95;;;2.28;;
65757;SDS011;52495;52.208;5.158;2024-03-29T13:35:14;3.30;;;2.40;;
65757;SDS011;52495;52.208;5.158;2024-03-29T13:37:43;3.90;;;2.53;;
65757;SDS011;52495;52.208;5.158;2024-03-29T13:40:11;3.58;;;2.20;;
65757;SDS011;52495;52.208;5.158;2024-03-29T13:42:38;3.47;;;2.60;;
65757;SDS011;52495;52.208;5.158;2024-03-29T13:45:09;2.53;;;2.10;;
65757;SDS011;52495;52.208;5.158;2024-03-29T13:47:37;3.75;;;2.53;;
65757;SDS011;52495;52.208;5.158;2024-03-29T13:50:05;4.45;;;2.70;;
65757;SDS011;52495;52.208;5.158;2024-03-29T13:52:33;3.45;;;2.50;;
65757;SDS011;52495;52.208;5.158;2024-03-29T13:55:00;2.85;;;2.28;;
65757;SDS011;52495;52.208;5.158;2024-03-29T13:57:27;3.63;;;2.10;;
65757;SDS011;52495;52.208;5.158;2024-03-29T13:59:54;4.65;;;2.10;;
65757;SDS011;52495;52.208;5.158;2024-03-29T14:02:21;3.55;;;2.10;;
65757;SDS011;52495;52.208;5.158;2024-03-29T14:04:49;4.20;;;2.03;;
65757;SDS011;52495;52.208;5.158;2024-03-29T14:07:16;3.40;;;1.88;;
65757;SDS011;52495;52.208;5.158;2024-03-29T14:09:43;3.88;;;2.00;;
65757;SDS011;52495;52.208;5.158;2024-03-29T14:12:10;3.47;;;2.00;;
65757;SDS011;52495;52.208;5.158;2024-03-29T14:14:38;3.38;;;1.98;;
65757;SDS011;52495;52.208;5.158;2024-03-29T14:17:06;2.72;;;2.10;;
65757;SDS011;52495;52.208;5.158;2024-03-29T14:19:34;3.90;;;2.55;;
65757;SDS011;52495;52.208;5.158;2024-03-29T14:22:04;2.72;;;1.98;;
65757;SDS011;52495;52.208;5.158;2024-03-29T14:24:48;4.22;;;2.40;;
65757;SDS011;52495;52.208;5.158;2024-03-29T14:27:15;4.07;;;2.92;;
65757;SDS011;52495;52.208;5.158;2024-03-29T14:29:42;3.83;;;2.40;;
65757;SDS011;52495;52.208;5.158;2024-03-29T14:32:11;4.57;;;2.42;;
65757;SDS011;52495;52.208;5.158;2024-03-29T14:34:38;6.78;;;2.50;;
65757;SDS011;52495;52.208;5.158;2024-03-29T14:37:11;4.20;;;2.33;;
65757;SDS011;52495;52.208;5.158;2024-03-29T14:39:41;4.40;;;2.70;;
65757;SDS011;52495;52.208;5.158;2024-03-29T14:42:09;3.97;;;2.20;;
65757;SDS011;52495;52.208;5.158;2024-03-29T14:44:38;3.13;;;2.20;;
65757;SDS011;52495;52.208;5.158;2024-03-29T14:47:05;4.00;;;2.30;;
65757;SDS011;52495;52.208;5.158;2024-03-29T14:49:32;2.65;;;1.85;;